Архив погоды в Дно

Метеограмма Дно
Понедельник, 25 Июня
Время местн. Темп Ветер Видим Явления Облачность нижн/средн/верх Атм. давл. Влжн Точка росы ВНГО R Сост. почвы Tg s
Напр Скр Прв ур.ст ур.м изм
15:00 - +20.7° Ю,Ю-З 2 - - - - 757 763 +0.6 48% +9.3° - - - - -
12:00 - +18.7° Ю 3 - - - - 756 762 +0.6 54% +9.2° - - - - -
09:00 +13.9° Ю 3 - более 50 км - преимущественно облачно 756 762 +1.1 71% +8.8° более 2.5 км 0 Влажная (без луж) -47° -
06:00 - +10.4° Ю 3 - - - - 755 760 +1.4 85% +8° - - - - -
03:00 - +11.5° Ю 2 - - - - 753 759 +1.4 79% +8° - - - - -
00:00 - +12.3° Ю 3 10 - - - 752 758 +1.6 79% +8.7° - - - - -
Воскресенье, 24 Июня
Время местн. Темп Ветер Видим Явления Облачность нижн/средн/верх Атм. давл. Влжн Точка росы ВНГО R Сост. почвы Tg s
Напр Скр Прв ур.ст ур.м изм
21:00 +14° Ю 4 12 более 50 км - преимущественно облачно 750 756 +1.8 74% +9.4° 1 км 3 - - -
18:00 - +17.1° Ю-В 5 11 - - - 748 754 -1.3 71% +11.7° - - - - -
15:00 - +15.8° В 1 - - - - 748 753 -1.3 99% +15.6° - - - - -
12:00 - +12.9° С,С-В 3 - - - - 748 753 -1.3 97% +12.4° - - - - -
09:00 +12.8° С 4 - более 50 км - облачно 749 755 -1.4 87% +10.7° 1 км 0 Сухая (без трещин) +13° -
06:00 - +12.1° С 2 - - - - 750 756 -1.4 91% +10.6° - - - - -
03:00 - +12.1° С 1 - - - - 752 757 -1.4 93% +11° - - - - -
00:00 - +12° штиль 0 - - - - 753 759 -0.3 97% +11.6° - - - - -
Суббота, 23 Июня
Время местн. Темп Ветер Видим Явления Облачность нижн/средн/верх Атм. давл. Влжн Точка росы ВНГО R Сост. почвы Tg s
Напр Скр Прв ур.ст ур.м изм
21:00 +15° штиль 0 - 50 км - облачно 753 759 -1.1 81% +11.7° - 0 - - -
18:00 - +16.6° З 1 - - - - 754 760 -0.4 59% +8.6° - - - - -
15:00 - +16.7° Ю 1 - - - - 755 761 -0.2 56% +7.8° - - - - -
12:00 - +18° штиль 0 - - - - 755 761 -0.2 51% +7.7° - - - - -
09:00 +14.2° З 1 - более 50 км - преимущественно облачно 755 761 +0.5 65% +7.7° более 2.5 км 0 Сухая (без трещин) -36° -
06:00 - +9.9° З 2 - - - - 755 760 +1 88% +8° - - - - -
03:00 - +9° Ю-З 1 - - - - 754 759 +1.5 86% +6.8° - - - - -
00:00 - +11.8° Ю,Ю-З 2 - - - - 752 758 +1.4 73% +7.1° - - - - -
Пятница, 22 Июня
Время местн. Темп Ветер Видим Явления Облачность нижн/средн/верх Атм. давл. Влжн Точка росы ВНГО R Сост. почвы Tg s
Напр Скр Прв ур.ст ур.м изм
21:00 +16.6° Ю-З 3 12 более 50 км - переменная облачность 751 756 +1.7 46% +4.9° 1 км 0 - - -
18:00 - +20° Ю,Ю-З 5 11 - - - 749 755 +0.5 39% +5.8° - - - - -
15:00 - +17.9° Ю-З 4 10 - - - 748 754 +1 54% +8.6° - - - - -
12:00 - +18.2° З 5 - - - - 747 753 +1.3 54% +8.7° - - - - -